sensor_id;sensor_type;location;lat;lon;timestamp;pressure;altitude;pressure_sealevel;temperature;humidity
7836;BME280;3963;42.658;23.298;2023-05-02T00:01:18;59617.78;;;11.82;100.00
7836;BME280;3963;42.658;23.298;2023-05-02T00:03:45;59629.31;;;11.85;100.00
7836;BME280;3963;42.658;23.298;2023-05-02T00:06:12;59634.75;;;11.93;100.00
7836;BME280;3963;42.658;23.298;2023-05-02T00:08:40;59641.28;;;12.01;100.00
7836;BME280;3963;42.658;23.298;2023-05-02T00:11:08;59679.94;;;12.08;100.00
7836;BME280;3963;42.658;23.298;2023-05-02T00:13:36;59695.66;;;12.13;100.00
7836;BME280;3963;42.658;23.298;2023-05-02T00:16:03;59697.47;;;12.20;100.00
7836;BME280;3963;42.658;23.298;2023-05-02T00:18:30;59687.63;;;12.20;100.00
7836;BME280;3963;42.658;23.298;2023-05-02T00:20:57;59676.69;;;12.20;100.00
7836;BME280;3963;42.658;23.298;2023-05-02T00:23:23;59692.44;;;12.25;100.00
7836;BME280;3963;42.658;23.298;2023-05-02T00:25:52;59677.31;;;12.23;100.00
7836;BME280;3963;42.658;23.298;2023-05-02T00:28:19;59667.81;;;12.19;100.00
7836;BME280;3963;42.658;23.298;2023-05-02T00:30:46;59693.69;;;12.16;100.00
7836;BME280;3963;42.658;23.298;2023-05-02T00:33:13;59668.19;;;12.14;100.00
7836;BME280;3963;42.658;23.298;2023-05-02T00:35:40;59688.50;;;12.16;100.00
7836;BME280;3963;42.658;23.298;2023-05-02T00:38:07;59702.03;;;12.17;100.00
7836;BME280;3963;42.658;23.298;2023-05-02T00:40:44;59704.69;;;12.19;100.00
7836;BME280;3963;42.658;23.298;2023-05-02T00:43:14;59706.44;;;12.09;100.00
7836;BME280;3963;42.658;23.298;2023-05-02T00:45:42;59682.13;;;12.28;100.00
7836;BME280;3963;42.658;23.298;2023-05-02T00:48:09;59684.03;;;12.22;100.00
7836;BME280;3963;42.658;23.298;2023-05-02T00:50:38;59688.59;;;12.19;100.00
7836;BME280;3963;42.658;23.298;2023-05-02T00:53:06;59684.94;;;12.18;100.00
7836;BME280;3963;42.658;23.298;2023-05-02T00:55:33;59693.78;;;12.19;100.00
7836;BME280;3963;42.658;23.298;2023-05-02T00:58:03;59678.13;;;12.16;100.00
7836;BME280;3963;42.658;23.298;2023-05-02T01:00:41;59667.03;;;12.11;100.00
7836;BME280;3963;42.658;23.298;2023-05-02T01:03:19;59697.09;;;12.10;100.00
7836;BME280;3963;42.658;23.298;2023-05-02T01:05:58;59662.66;;;12.04;100.00
7836;BME280;3963;42.658;23.298;2023-05-02T01:08:33;59678.94;;;12.10;100.00
7836;BME280;3963;42.658;23.298;2023-05-02T01:11:06;59656.13;;;12.10;100.00
7836;BME280;3963;42.658;23.298;2023-05-02T01:13:37;59660.25;;;12.09;100.00
7836;BME280;3963;42.658;23.298;2023-05-02T01:16:07;59693.44;;;12.09;100.00
7836;BME280;3963;42.658;23.298;2023-05-02T01:18:38;59652.53;;;12.12;100.00
7836;BME280;3963;42.658;23.298;2023-05-02T01:21:09;59650.38;;;12.10;100.00
7836;BME280;3963;42.658;23.298;2023-05-02T01:23:45;59653.97;;;12.08;100.00
7836;BME280;3963;42.658;23.298;2023-05-02T01:26:26;59625.06;;;12.13;100.00
7836;BME280;3963;42.658;23.298;2023-05-02T01:28:58;59674.38;;;12.13;100.00
7836;BME280;3963;42.658;23.298;2023-05-02T01:31:25;59694.41;;;12.07;100.00
7836;BME280;3963;42.658;23.298;2023-05-02T01:33:54;59663.56;;;12.00;100.00
7836;BME280;3963;42.658;23.298;2023-05-02T01:36:24;59666.44;;;11.93;100.00
7836;BME280;3963;42.658;23.298;2023-05-02T01:38:54;59638.25;;;11.89;100.00
7836;BME280;3963;42.658;23.298;2023-05-02T01:41:25;59634.88;;;11.81;100.00
7836;BME280;3963;42.658;23.298;2023-05-02T01:43:53;59611.28;;;11.73;100.00
7836;BME280;3963;42.658;23.298;2023-05-02T01:46:22;59624.03;;;11.68;100.00
7836;BME280;3963;42.658;23.298;2023-05-02T01:48:51;59646.31;;;11.67;100.00
7836;BME280;3963;42.658;23.298;2023-05-02T01:51:20;59561.91;;;11.56;100.00
7836;BME280;3963;42.658;23.298;2023-05-02T01:53:49;59596.97;;;11.50;100.00
7836;BME280;3963;42.658;23.298;2023-05-02T01:56:18;59585.97;;;11.47;100.00
7836;BME280;3963;42.658;23.298;2023-05-02T01:58:47;59566.94;;;11.36;100.00
7836;BME280;3963;42.658;23.298;2023-05-02T02:01:15;59569.47;;;11.34;100.00
7836;BME280;3963;42.658;23.298;2023-05-02T02:03:45;59578.03;;;11.27;100.00
7836;BME280;3963;42.658;23.298;2023-05-02T02:06:13;59529.16;;;11.23;100.00
7836;BME280;3963;42.658;23.298;2023-05-02T02:08:41;59552.03;;;11.25;100.00
7836;BME280;3963;42.658;23.298;2023-05-02T02:11:09;59584.22;;;11.26;100.00
7836;BME280;3963;42.658;23.298;2023-05-02T02:13:40;59552.84;;;11.18;100.00
7836;BME280;3963;42.658;23.298;2023-05-02T02:16:11;59533.72;;;11.20;100.00
7836;BME280;3963;42.658;23.298;2023-05-02T02:18:40;59564.56;;;11.12;100.00
7836;BME280;3963;42.658;23.298;2023-05-02T02:21:11;59511.97;;;10.89;100.00
7836;BME280;3963;42.658;23.298;2023-05-02T02:23:41;59519.56;;;10.99;100.00
7836;BME280;3963;42.658;23.298;2023-05-02T02:26:08;59520.00;;;10.97;100.00
7836;BME280;3963;42.658;23.298;2023-05-02T02:28:36;59512.22;;;10.97;100.00
7836;BME280;3963;42.658;23.298;2023-05-02T02:31:03;59535.00;;;10.96;100.00
7836;BME280;3963;42.658;23.298;2023-05-02T02:33:30;59511.16;;;10.96;100.00
7836;BME280;3963;42.658;23.298;2023-05-02T02:36:03;59505.53;;;10.98;100.00
7836;BME280;3963;42.658;23.298;2023-05-02T02:38:41;59528.75;;;10.95;100.00
7836;BME280;3963;42.658;23.298;2023-05-02T02:41:14;59539.66;;;10.96;100.00
7836;BME280;3963;42.658;23.298;2023-05-02T02:43:47;59527.84;;;10.99;100.00
7836;BME280;3963;42.658;23.298;2023-05-02T02:46:22;59520.44;;;10.95;100.00
7836;BME280;3963;42.658;23.298;2023-05-02T02:51:44;59519.75;;;10.89;100.00
7836;BME280;3963;42.658;23.298;2023-05-02T02:54:19;59490.56;;;10.84;100.00
7836;BME280;3963;42.658;23.298;2023-05-02T02:56:56;59513.13;;;10.93;100.00
7836;BME280;3963;42.658;23.298;2023-05-02T02:59:28;59526.88;;;11.01;100.00
7836;BME280;3963;42.658;23.298;2023-05-02T03:02:02;59514.81;;;10.97;100.00
7836;BME280;3963;42.658;23.298;2023-05-02T03:04:33;59478.38;;;10.92;100.00
7836;BME280;3963;42.658;23.298;2023-05-02T03:07:00;59525.56;;;10.92;100.00
7836;BME280;3963;42.658;23.298;2023-05-02T03:09:39;59488.75;;;10.92;100.00
7836;BME280;3963;42.658;23.298;2023-05-02T03:12:06;59520.38;;;10.78;100.00
7836;BME280;3963;42.658;23.298;2023-05-02T03:14:32;59492.78;;;10.74;100.00
7836;BME280;3963;42.658;23.298;2023-05-02T03:16:59;59484.84;;;10.69;100.00
7836;BME280;3963;42.658;23.298;2023-05-02T03:19:26;59503.16;;;10.59;100.00
7836;BME280;3963;42.658;23.298;2023-05-02T03:21:53;59442.22;;;10.48;100.00
7836;BME280;3963;42.658;23.298;2023-05-02T03:24:21;59435.19;;;10.39;100.00
7836;BME280;3963;42.658;23.298;2023-05-02T03:26:49;59411.19;;;10.33;100.00
7836;BME280;3963;42.658;23.298;2023-05-02T03:29:19;59435.53;;;10.34;100.00
7836;BME280;3963;42.658;23.298;2023-05-02T03:31:46;59424.22;;;10.21;100.00
7836;BME280;3963;42.658;23.298;2023-05-02T03:34:13;59426.91;;;10.24;100.00
7836;BME280;3963;42.658;23.298;2023-05-02T03:36:39;59409.31;;;10.24;100.00
7836;BME280;3963;42.658;23.298;2023-05-02T03:39:06;59417.88;;;10.18;100.00
7836;BME280;3963;42.658;23.298;2023-05-02T03:41:33;59389.97;;;10.18;100.00
7836;BME280;3963;42.658;23.298;2023-05-02T03:44:03;59406.00;;;10.19;100.00
7836;BME280;3963;42.658;23.298;2023-05-02T03:46:30;59448.66;;;10.25;100.00
7836;BME280;3963;42.658;23.298;2023-05-02T03:48:57;59440.25;;;10.36;100.00
7836;BME280;3963;42.658;23.298;2023-05-02T03:51:24;59463.97;;;10.49;100.00
7836;BME280;3963;42.658;23.298;2023-05-02T03:53:51;59472.91;;;10.52;100.00
7836;BME280;3963;42.658;23.298;2023-05-02T03:56:18;59505.75;;;10.59;100.00
7836;BME280;3963;42.658;23.298;2023-05-02T03:58:46;59447.97;;;10.66;100.00
7836;BME280;3963;42.658;23.298;2023-05-02T04:01:16;59497.88;;;10.71;100.00
7836;BME280;3963;42.658;23.298;2023-05-02T04:03:42;59510.84;;;10.71;100.00
7836;BME280;3963;42.658;23.298;2023-05-02T04:06:10;59462.25;;;10.74;100.00
7836;BME280;3963;42.658;23.298;2023-05-02T04:08:37;59501.19;;;10.77;100.00
7836;BME280;3963;42.658;23.298;2023-05-02T04:11:04;59477.72;;;10.72;100.00
7836;BME280;3963;42.658;23.298;2023-05-02T04:13:30;59513.88;;;10.84;100.00
7836;BME280;3963;42.658;23.298;2023-05-02T04:15:57;59508.75;;;10.86;100.00
7836;BME280;3963;42.658;23.298;2023-05-02T04:18:26;59508.31;;;10.88;100.00
7836;BME280;3963;42.658;23.298;2023-05-02T04:20:52;59524.56;;;10.94;100.00
7836;BME280;3963;42.658;23.298;2023-05-02T04:23:19;59541.34;;;11.00;100.00
7836;BME280;3963;42.658;23.298;2023-05-02T04:25:52;59525.44;;;11.04;100.00
7836;BME280;3963;42.658;23.298;2023-05-02T04:28:19;59547.50;;;11.13;100.00
7836;BME280;3963;42.658;23.298;2023-05-02T04:30:46;59533.63;;;11.17;100.00
7836;BME280;3963;42.658;23.298;2023-05-02T04:33:13;59556.59;;;11.22;100.00
7836;BME280;3963;42.658;23.298;2023-05-02T04:35:41;59562.50;;;11.27;100.00
7836;BME280;3963;42.658;23.298;2023-05-02T04:38:08;59565.34;;;11.35;100.00
7836;BME280;3963;42.658;23.298;2023-05-02T04:40:35;59576.25;;;11.35;100.00
7836;BME280;3963;42.658;23.298;2023-05-02T04:43:02;59572.84;;;11.42;100.00
7836;BME280;3963;42.658;23.298;2023-05-02T04:45:29;59584.91;;;11.46;100.00
7836;BME280;3963;42.658;23.298;2023-05-02T04:47:55;59591.16;;;11.47;100.00
7836;BME280;3963;42.658;23.298;2023-05-02T04:50:22;59602.16;;;11.50;100.00
7836;BME280;3963;42.658;23.298;2023-05-02T04:52:50;59580.34;;;11.49;100.00
7836;BME280;3963;42.658;23.298;2023-05-02T04:55:18;59611.09;;;11.53;100.00
7836;BME280;3963;42.658;23.298;2023-05-02T04:57:44;59608.13;;;11.58;100.00
7836;BME280;3963;42.658;23.298;2023-05-02T05:00:12;59618.13;;;11.62;100.00
7836;BME280;3963;42.658;23.298;2023-05-02T05:02:39;59606.34;;;11.66;100.00
7836;BME280;3963;42.658;23.298;2023-05-02T05:05:07;59618.84;;;11.68;100.00
7836;BME280;3963;42.658;23.298;2023-05-02T05:07:34;59606.78;;;11.64;100.00
7836;BME280;3963;42.658;23.298;2023-05-02T05:10:03;59609.31;;;11.61;100.00
7836;BME280;3963;42.658;23.298;2023-05-02T05:12:30;59607.34;;;11.64;100.00
7836;BME280;3963;42.658;23.298;2023-05-02T05:14:57;59593.28;;;11.63;100.00
7836;BME280;3963;42.658;23.298;2023-05-02T05:17:24;59615.84;;;11.70;100.00
7836;BME280;3963;42.658;23.298;2023-05-02T05:19:51;59622.63;;;11.72;100.00
7836;BME280;3963;42.658;23.298;2023-05-02T05:22:17;59605.53;;;11.73;100.00
7836;BME280;3963;42.658;23.298;2023-05-02T05:24:50;59650.97;;;11.81;100.00
7836;BME280;3963;42.658;23.298;2023-05-02T05:27:20;59642.03;;;11.78;100.00
7836;BME280;3963;42.658;23.298;2023-05-02T05:29:48;59632.91;;;11.84;100.00
7836;BME280;3963;42.658;23.298;2023-05-02T05:32:16;59657.56;;;11.92;100.00
7836;BME280;3963;42.658;23.298;2023-05-02T05:34:45;59653.91;;;12.06;100.00
7836;BME280;3963;42.658;23.298;2023-05-02T05:37:13;59683.22;;;12.14;100.00
7836;BME280;3963;42.658;23.298;2023-05-02T05:39:40;59659.09;;;12.06;100.00
7836;BME280;3963;42.658;23.298;2023-05-02T05:42:08;59649.50;;;11.99;100.00
7836;BME280;3963;42.658;23.298;2023-05-02T05:44:39;59685.38;;;12.16;100.00
7836;BME280;3963;42.658;23.298;2023-05-02T05:47:06;59692.63;;;12.30;100.00
7836;BME280;3963;42.658;23.298;2023-05-02T05:49:34;59713.72;;;12.40;100.00
7836;BME280;3963;42.658;23.298;2023-05-02T05:52:02;59715.41;;;12.44;100.00
7836;BME280;3963;42.658;23.298;2023-05-02T05:54:30;59720.97;;;12.54;100.00
7836;BME280;3963;42.658;23.298;2023-05-02T05:56:58;59729.47;;;12.60;100.00
7836;BME280;3963;42.658;23.298;2023-05-02T05:59:25;59744.13;;;12.64;100.00
7836;BME280;3963;42.658;23.298;2023-05-02T06:01:54;59729.97;;;12.60;100.00
7836;BME280;3963;42.658;23.298;2023-05-02T06:04:21;59726.94;;;12.62;100.00
7836;BME280;3963;42.658;23.298;2023-05-02T06:06:49;59757.59;;;12.62;100.00
7836;BME280;3963;42.658;23.298;2023-05-02T06:09:18;59747.88;;;12.82;100.00
7836;BME280;3963;42.658;23.298;2023-05-02T06:11:45;59776.53;;;12.85;100.00
7836;BME280;3963;42.658;23.298;2023-05-02T06:14:14;59796.81;;;12.84;100.00
7836;BME280;3963;42.658;23.298;2023-05-02T06:16:42;59772.50;;;12.88;100.00
7836;BME280;3963;42.658;23.298;2023-05-02T06:19:12;59786.75;;;13.09;100.00
7836;BME280;3963;42.658;23.298;2023-05-02T06:21:40;59819.81;;;13.18;100.00
7836;BME280;3963;42.658;23.298;2023-05-02T06:24:09;59838.19;;;13.23;100.00
7836;BME280;3963;42.658;23.298;2023-05-02T06:26:38;59821.84;;;13.32;99.66
7836;BME280;3963;42.658;23.298;2023-05-02T06:29:07;59855.53;;;13.44;97.86
7836;BME280;3963;42.658;23.298;2023-05-02T06:31:34;59897.69;;;13.59;96.86
7836;BME280;3963;42.658;23.298;2023-05-02T06:34:01;59857.31;;;13.65;92.27
7836;BME280;3963;42.658;23.298;2023-05-02T06:36:31;59914.03;;;13.65;92.51
7836;BME280;3963;42.658;23.298;2023-05-02T06:38:58;59913.81;;;13.74;91.51
7836;BME280;3963;42.658;23.298;2023-05-02T06:41:25;59906.91;;;13.85;89.19
7836;BME280;3963;42.658;23.298;2023-05-02T06:43:52;59891.94;;;13.73;89.92
7836;BME280;3963;42.658;23.298;2023-05-02T06:46:20;59919.00;;;13.89;89.91
7836;BME280;3963;42.658;23.298;2023-05-02T06:48:47;59959.03;;;14.02;86.37
7836;BME280;3963;42.658;23.298;2023-05-02T06:51:14;59934.88;;;14.11;87.16
7836;BME280;3963;42.658;23.298;2023-05-02T06:53:46;59971.31;;;14.26;84.06
7836;BME280;3963;42.658;23.298;2023-05-02T06:56:13;59927.22;;;14.16;84.05
7836;BME280;3963;42.658;23.298;2023-05-02T06:58:42;59959.38;;;14.27;82.96
7836;BME280;3963;42.658;23.298;2023-05-02T07:01:09;59974.00;;;14.43;81.40
7836;BME280;3963;42.658;23.298;2023-05-02T07:03:37;59996.53;;;14.47;81.41
7836;BME280;3963;42.658;23.298;2023-05-02T07:06:06;59976.06;;;14.43;80.08
7836;BME280;3963;42.658;23.298;2023-05-02T07:08:37;60022.03;;;14.61;78.88
7836;BME280;3963;42.658;23.298;2023-05-02T07:11:06;60020.03;;;14.79;77.83
7836;BME280;3963;42.658;23.298;2023-05-02T07:13:35;60074.00;;;15.17;75.89
7836;BME280;3963;42.658;23.298;2023-05-02T07:16:01;60182.38;;;15.72;70.72
7836;BME280;3963;42.658;23.298;2023-05-02T07:18:28;60180.00;;;15.94;68.59
7836;BME280;3963;42.658;23.298;2023-05-02T07:20:55;60180.16;;;15.99;67.29
7836;BME280;3963;42.658;23.298;2023-05-02T07:23:24;60220.34;;;16.13;67.12
7836;BME280;3963;42.658;23.298;2023-05-02T07:25:51;60237.03;;;16.43;64.21
7836;BME280;3963;42.658;23.298;2023-05-02T07:28:19;60267.63;;;16.67;64.89
7836;BME280;3963;42.658;23.298;2023-05-02T07:30:46;60404.31;;;17.31;62.27
7836;BME280;3963;42.658;23.298;2023-05-02T07:33:13;60408.97;;;17.45;60.00
7836;BME280;3963;42.658;23.298;2023-05-02T07:35:40;60469.81;;;17.77;58.28
7836;BME280;3963;42.658;23.298;2023-05-02T07:38:07;60453.88;;;18.01;57.51
7836;BME280;3963;42.658;23.298;2023-05-02T07:40:34;60448.22;;;17.74;57.21
7836;BME280;3963;42.658;23.298;2023-05-02T07:43:01;60450.22;;;17.86;57.42
7836;BME280;3963;42.658;23.298;2023-05-02T07:45:30;60466.94;;;17.84;56.34
7836;BME280;3963;42.658;23.298;2023-05-02T07:47:58;60500.31;;;18.10;56.27
7836;BME280;3963;42.658;23.298;2023-05-02T07:50:26;60563.66;;;18.52;55.62
7836;BME280;3963;42.658;23.298;2023-05-02T07:52:54;60642.00;;;19.18;52.79
7836;BME280;3963;42.658;23.298;2023-05-02T07:55:21;60670.03;;;19.39;51.91
7836;BME280;3963;42.658;23.298;2023-05-02T07:57:50;60652.50;;;19.18;51.47
7836;BME280;3963;42.658;23.298;2023-05-02T08:00:18;60637.44;;;19.23;51.31
7836;BME280;3963;42.658;23.298;2023-05-02T08:02:46;60637.19;;;19.16;51.25
7836;BME280;3963;42.658;23.298;2023-05-02T08:05:13;60609.94;;;18.71;52.73
7836;BME280;3963;42.658;23.298;2023-05-02T08:07:40;60492.16;;;18.17;54.68
7836;BME280;3963;42.658;23.298;2023-05-02T08:10:08;60454.47;;;17.73;56.74
7836;BME280;3963;42.658;23.298;2023-05-02T08:12:37;60424.59;;;17.42;59.03
7836;BME280;3963;42.658;23.298;2023-05-02T08:15:05;60403.56;;;17.40;59.25
7836;BME280;3963;42.658;23.298;2023-05-02T08:17:32;60380.88;;;17.19;60.16
7836;BME280;3963;42.658;23.298;2023-05-02T08:20:00;60383.75;;;17.26;60.19
7836;BME280;3963;42.658;23.298;2023-05-02T08:22:28;60431.56;;;17.61;58.46
7836;BME280;3963;42.658;23.298;2023-05-02T08:24:57;60530.75;;;18.27;55.88
7836;BME280;3963;42.658;23.298;2023-05-02T08:27:25;60620.75;;;18.96;54.16
7836;BME280;3963;42.658;23.298;2023-05-02T08:29:52;60728.16;;;19.64;51.65
7836;BME280;3963;42.658;23.298;2023-05-02T08:32:18;60810.03;;;20.20;48.90
7836;BME280;3963;42.658;23.298;2023-05-02T08:34:48;60903.44;;;20.73;47.11
7836;BME280;3963;42.658;23.298;2023-05-02T08:37:17;60993.16;;;21.53;45.51
7836;BME280;3963;42.658;23.298;2023-05-02T08:39:43;61004.56;;;21.79;44.70
7836;BME280;3963;42.658;23.298;2023-05-02T08:42:10;61092.88;;;22.46;42.36
7836;BME280;3963;42.658;23.298;2023-05-02T08:44:37;61141.97;;;22.45;42.85
7836;BME280;3963;42.658;23.298;2023-05-02T08:47:04;61114.38;;;22.41;43.46
7836;BME280;3963;42.658;23.298;2023-05-02T08:49:31;61059.50;;;21.81;43.70
7836;BME280;3963;42.658;23.298;2023-05-02T08:52:00;60952.06;;;21.23;44.91
7836;BME280;3963;42.658;23.298;2023-05-02T08:54:29;60797.78;;;20.31;46.65
7836;BME280;3963;42.658;23.298;2023-05-02T08:56:57;60630.91;;;19.32;49.70
7836;BME280;3963;42.658;23.298;2023-05-02T08:59:26;60620.41;;;18.86;51.35
7836;BME280;3963;42.658;23.298;2023-05-02T09:01:57;60610.59;;;18.59;52.21
7836;BME280;3963;42.658;23.298;2023-05-02T09:04:30;60585.81;;;18.56;51.76
7836;BME280;3963;42.658;23.298;2023-05-02T09:06:57;60619.94;;;18.88;51.67
7836;BME280;3963;42.658;23.298;2023-05-02T09:09:24;60787.03;;;19.94;49.00
7836;BME280;3963;42.658;23.298;2023-05-02T09:11:54;60955.34;;;21.26;46.06
7836;BME280;3963;42.658;23.298;2023-05-02T09:14:21;60978.56;;;21.42;43.50
7836;BME280;3963;42.658;23.298;2023-05-02T09:16:48;60893.53;;;20.76;44.52
7836;BME280;3963;42.658;23.298;2023-05-02T09:19:23;60810.94;;;20.16;46.78
7836;BME280;3963;42.658;23.298;2023-05-02T09:21:50;60926.16;;;21.06;45.60
7836;BME280;3963;42.658;23.298;2023-05-02T09:24:19;61053.22;;;21.97;42.17
7836;BME280;3963;42.658;23.298;2023-05-02T09:26:58;61225.63;;;23.27;39.54
7836;BME280;3963;42.658;23.298;2023-05-02T09:29:26;61160.59;;;22.65;38.64
7836;BME280;3963;42.658;23.298;2023-05-02T09:31:55;61104.69;;;22.20;40.63
7836;BME280;3963;42.658;23.298;2023-05-02T09:34:22;61090.72;;;21.97;40.46
7836;BME280;3963;42.658;23.298;2023-05-02T09:36:49;61146.56;;;22.56;39.88
7836;BME280;3963;42.658;23.298;2023-05-02T09:39:20;61141.56;;;22.49;39.54
7836;BME280;3963;42.658;23.298;2023-05-02T09:41:47;61068.16;;;22.01;39.82
7836;BME280;3963;42.658;23.298;2023-05-02T09:44:17;61092.34;;;21.99;39.83
7836;BME280;3963;42.658;23.298;2023-05-02T09:46:47;60994.78;;;21.70;41.82
7836;BME280;3963;42.658;23.298;2023-05-02T09:49:16;61166.88;;;22.63;40.25
7836;BME280;3963;42.658;23.298;2023-05-02T09:51:46;61305.94;;;23.55;37.77
7836;BME280;3963;42.658;23.298;2023-05-02T09:54:13;61264.38;;;23.31;37.55
7836;BME280;3963;42.658;23.298;2023-05-02T09:56:53;61315.91;;;23.84;37.46
7836;BME280;3963;42.658;23.298;2023-05-02T09:59:22;61440.44;;;24.47;35.73
7836;BME280;3963;42.658;23.298;2023-05-02T10:01:55;61364.78;;;24.19;34.59
7836;BME280;3963;42.658;23.298;2023-05-02T10:04:24;61310.91;;;23.77;34.65
7836;BME280;3963;42.658;23.298;2023-05-02T10:06:54;61327.03;;;23.84;36.11
7836;BME280;3963;42.658;23.298;2023-05-02T10:09:23;61241.16;;;23.17;36.14
7836;BME280;3963;42.658;23.298;2023-05-02T10:11:53;61085.31;;;22.10;38.13
7836;BME280;3963;42.658;23.298;2023-05-02T10:14:23;61079.88;;;21.90;38.61
7836;BME280;3963;42.658;23.298;2023-05-02T10:16:54;61187.84;;;22.73;37.13
7836;BME280;3963;42.658;23.298;2023-05-02T10:19:28;61211.22;;;22.92;36.05
7836;BME280;3963;42.658;23.298;2023-05-02T10:21:58;61181.16;;;22.93;36.00
7836;BME280;3963;42.658;23.298;2023-05-02T10:24:28;61253.03;;;23.08;36.76
7836;BME280;3963;42.658;23.298;2023-05-02T10:26:59;61308.56;;;23.55;35.16
7836;BME280;3963;42.658;23.298;2023-05-02T10:29:30;61293.31;;;23.73;34.19
7836;BME280;3963;42.658;23.298;2023-05-02T10:31:59;61301.16;;;23.70;34.21
7836;BME280;3963;42.658;23.298;2023-05-02T10:34:32;61342.56;;;23.89;34.17
7836;BME280;3963;42.658;23.298;2023-05-02T10:37:02;61474.28;;;24.61;32.79
7836;BME280;3963;42.658;23.298;2023-05-02T10:39:31;61399.81;;;24.37;33.14
7836;BME280;3963;42.658;23.298;2023-05-02T10:42:03;61541.19;;;24.94;31.84
7836;BME280;3963;42.658;23.298;2023-05-02T10:44:37;61396.72;;;24.09;31.73
7836;BME280;3963;42.658;23.298;2023-05-02T10:47:21;61387.50;;;24.18;32.43
7836;BME280;3963;42.658;23.298;2023-05-02T10:49:50;61354.50;;;23.97;32.55
7836;BME280;3963;42.658;23.298;2023-05-02T10:52:28;61248.44;;;23.14;32.94
7836;BME280;3963;42.658;23.298;2023-05-02T10:55:20;61154.69;;;22.47;34.36
7836;BME280;3963;42.658;23.298;2023-05-02T10:58:21;61157.94;;;22.79;33.53
7836;BME280;3963;42.658;23.298;2023-05-02T11:00:50;61154.41;;;22.54;33.82
7836;BME280;3963;42.658;23.298;2023-05-02T11:03:54;61072.03;;;22.07;34.90
7836;BME280;3963;42.658;23.298;2023-05-02T11:06:22;61017.25;;;21.64;35.45
7836;BME280;3963;42.658;23.298;2023-05-02T11:08:50;60970.03;;;21.39;35.93
7836;BME280;3963;42.658;23.298;2023-05-02T11:11:40;60954.44;;;21.15;36.87
7836;BME280;3963;42.658;23.298;2023-05-02T11:14:07;60896.88;;;20.96;37.18
7836;BME280;3963;42.658;23.298;2023-05-02T11:17:08;60938.78;;;21.35;36.73
7836;BME280;3963;42.658;23.298;2023-05-02T11:22:52;60936.41;;;21.28;36.43
7836;BME280;3963;42.658;23.298;2023-05-02T11:25:30;61013.63;;;21.65;35.73
7836;BME280;3963;42.658;23.298;2023-05-02T11:27:59;60942.69;;;21.26;36.71
7836;BME280;3963;42.658;23.298;2023-05-02T11:30:41;60933.81;;;21.13;37.11
7836;BME280;3963;42.658;23.298;2023-05-02T11:33:18;60972.03;;;21.36;36.49
7836;BME280;3963;42.658;23.298;2023-05-02T11:35:47;60975.78;;;21.23;36.97
7836;BME280;3963;42.658;23.298;2023-05-02T11:38:15;60918.00;;;21.13;37.54
7836;BME280;3963;42.658;23.298;2023-05-02T11:40:57;60930.31;;;21.34;37.18
7836;BME280;3963;42.658;23.298;2023-05-02T11:43:26;60994.00;;;21.47;36.98
7836;BME280;3963;42.658;23.298;2023-05-02T11:45:57;61016.53;;;21.58;36.94
7836;BME280;3963;42.658;23.298;2023-05-02T11:48:30;60996.16;;;21.64;36.97
7836;BME280;3963;42.658;23.298;2023-05-02T11:50:58;61032.13;;;21.82;37.14
7836;BME280;3963;42.658;23.298;2023-05-02T11:53:27;60943.97;;;21.32;37.34
7836;BME280;3963;42.658;23.298;2023-05-02T11:55:58;60953.13;;;21.38;38.07
7836;BME280;3963;42.658;23.298;2023-05-02T11:58:27;60941.69;;;21.28;37.70
7836;BME280;3963;42.658;23.298;2023-05-02T12:00:57;61008.59;;;21.73;37.57
7836;BME280;3963;42.658;23.298;2023-05-02T12:03:28;61004.97;;;21.60;37.64
7836;BME280;3963;42.658;23.298;2023-05-02T12:05:55;61028.69;;;21.60;37.38
7836;BME280;3963;42.658;23.298;2023-05-02T12:08:24;61039.06;;;21.69;37.82
7836;BME280;3963;42.658;23.298;2023-05-02T12:10:53;61021.53;;;21.65;37.65
7836;BME280;3963;42.658;23.298;2023-05-02T12:13:23;60981.22;;;21.28;38.33
7836;BME280;3963;42.658;23.298;2023-05-02T12:15:50;60890.53;;;20.80;38.92
7836;BME280;3963;42.658;23.298;2023-05-02T12:18:18;60852.06;;;20.64;39.13
7836;BME280;3963;42.658;23.298;2023-05-02T12:20:50;60936.47;;;20.98;38.91
7836;BME280;3963;42.658;23.298;2023-05-02T12:23:18;60861.84;;;20.73;39.00
7836;BME280;3963;42.658;23.298;2023-05-02T12:25:45;60883.03;;;20.61;39.45
7836;BME280;3963;42.658;23.298;2023-05-02T12:28:13;60870.56;;;20.81;39.35
7836;BME280;3963;42.658;23.298;2023-05-02T12:30:41;60889.31;;;20.60;38.71
7836;BME280;3963;42.658;23.298;2023-05-02T12:33:10;60885.28;;;20.80;39.16
7836;BME280;3963;42.658;23.298;2023-05-02T12:35:36;60871.31;;;20.72;39.10
7836;BME280;3963;42.658;23.298;2023-05-02T12:38:14;60887.47;;;20.68;40.12
7836;BME280;3963;42.658;23.298;2023-05-02T12:40:51;60908.88;;;20.78;39.41
7836;BME280;3963;42.658;23.298;2023-05-02T12:43:22;60834.38;;;20.55;39.11
7836;BME280;3963;42.658;23.298;2023-05-02T12:46:08;60859.44;;;20.64;39.95
7836;BME280;3963;42.658;23.298;2023-05-02T12:48:36;60858.50;;;20.68;39.04
7836;BME280;3963;42.658;23.298;2023-05-02T12:51:04;60815.38;;;20.37;39.08
7836;BME280;3963;42.658;23.298;2023-05-02T12:53:40;60785.72;;;20.32;39.46
7836;BME280;3963;42.658;23.298;2023-05-02T12:56:09;60782.13;;;20.04;39.80
7836;BME280;3963;42.658;23.298;2023-05-02T12:58:42;60811.66;;;20.36;40.00
7836;BME280;3963;42.658;23.298;2023-05-02T13:01:10;60865.16;;;20.62;39.54
7836;BME280;3963;42.658;23.298;2023-05-02T13:03:40;60794.38;;;20.55;39.18
7836;BME280;3963;42.658;23.298;2023-05-02T13:06:09;60775.88;;;20.06;40.24
7836;BME280;3963;42.658;23.298;2023-05-02T13:08:39;60753.91;;;20.10;40.90
7836;BME280;3963;42.658;23.298;2023-05-02T13:11:07;60835.63;;;20.29;39.72
7836;BME280;3963;42.658;23.298;2023-05-02T13:13:34;60855.81;;;20.51;39.51
7836;BME280;3963;42.658;23.298;2023-05-02T13:16:01;60817.88;;;20.50;38.72
7836;BME280;3963;42.658;23.298;2023-05-02T13:18:29;60847.66;;;20.58;38.53
7836;BME280;3963;42.658;23.298;2023-05-02T13:20:56;60866.41;;;20.68;38.83
7836;BME280;3963;42.658;23.298;2023-05-02T13:23:23;60832.53;;;20.78;38.82